Time;durP1;ratioP1;P1;durP2;ratioP2;P2;SDS_P1;SDS_P2;PMS_P1;PMS_P2;Temp;Humidity;BMP_temperature;BMP_pressure;BME280_temperature;BME280_humidity;BME280_pressure;Samples;Min_cycle;Max_cycle;Signal;HPM_P1;HPM_P2
2022/09/24 00:00:32;;;;;;;12.30;10.57;;;;;;;;;;5044178;28;20103;-82
2022/09/24 00:02:58;;;;;;;10.95;6.15;;;;;;;;;;5044235;28;20159;-82
2022/09/24 00:05:24;;;;;;;5.78;4.43;;;;;;;;;;5040331;28;20511;-82
2022/09/24 00:07:50;;;;;;;6.45;3.50;;;;;;;;;;5038681;28;20097;-81
2022/09/24 00:10:16;;;;;;;8.27;3.30;;;;;;;;;;5045500;28;20037;-81
2022/09/24 00:12:42;;;;;;;5.07;3.20;;;;;;;;;;5042745;28;20381;-81
2022/09/24 00:15:08;;;;;;;5.03;3.45;;;;;;;;;;5039782;28;20056;-82
2022/09/24 00:17:34;;;;;;;7.35;4.00;;;;;;;;;;5041669;28;20056;-82
2022/09/24 00:20:00;;;;;;;5.43;2.65;;;;;;;;;;5037986;28;20037;-81
2022/09/24 00:22:26;;;;;;;8.02;3.22;;;;;;;;;;5042333;28;20048;-82
2022/09/24 00:27:37;;;;;;;6.28;2.70;;;;;;;;;;5035887;28;20473;-79
2022/09/24 00:30:03;;;;;;;5.05;2.70;;;;;;;;;;5043684;28;20079;-80
2022/09/24 00:32:29;;;;;;;9.48;2.90;;;;;;;;;;5041167;28;20049;-80
2022/09/24 00:34:55;;;;;;;7.07;2.80;;;;;;;;;;5045719;28;20414;-80
2022/09/24 00:37:21;;;;;;;8.02;3.00;;;;;;;;;;5038922;28;20068;-79
2022/09/24 00:39:47;;;;;;;6.50;2.90;;;;;;;;;;5042283;28;20041;-79
2022/09/24 00:42:13;;;;;;;10.57;2.67;;;;;;;;;;5044410;28;20041;-80
2022/09/24 00:44:43;;;;;;;9.15;3.03;;;;;;;;;;5042545;28;20041;-80
2022/09/24 00:47:27;;;;;;;8.77;3.17;;;;;;;;;;5042642;28;20502;-80
2022/09/24 00:49:57;;;;;;;10.23;3.10;;;;;;;;;;5044460;28;20481;-80
2022/09/24 00:52:23;;;;;;;8.60;3.28;;;;;;;;;;5041696;28;20083;-80
2022/09/24 00:54:49;;;;;;;8.10;2.75;;;;;;;;;;5044890;28;20037;-80
2022/09/24 00:57:15;;;;;;;11.75;3.30;;;;;;;;;;5045802;28;20052;-80
2022/09/24 00:59:41;;;;;;;8.88;2.92;;;;;;;;;;5046885;28;20040;-80
2022/09/24 01:02:07;;;;;;;7.05;2.70;;;;;;;;;;5042518;28;20127;-80
2022/09/24 01:04:33;;;;;;;10.63;2.83;;;;;;;;;;5049550;28;20087;-81
2022/09/24 01:07:00;;;;;;;8.13;3.28;;;;;;;;;;5045106;28;20053;-81
2022/09/24 01:09:27;;;;;;;7.28;2.95;;;;;;;;;;5040909;28;20060;-80
2022/09/24 01:12:07;;;;;;;6.93;2.83;;;;;;;;;;5045504;28;20064;-80
2022/09/24 01:14:37;;;;;;;6.95;3.03;;;;;;;;;;5046651;28;20044;-80
2022/09/24 01:17:16;;;;;;;7.00;2.70;;;;;;;;;;5042589;28;20405;-80
2022/09/24 01:19:48;;;;;;;6.05;2.70;;;;;;;;;;5045002;28;20067;-80
2022/09/24 01:22:14;;;;;;;9.80;2.85;;;;;;;;;;5044091;28;20052;-80
2022/09/24 01:24:59;;;;;;;7.05;2.92;;;;;;;;;;5046849;28;20040;-80
2022/09/24 01:27:27;;;;;;;6.35;2.88;;;;;;;;;;5047348;28;20055;-80
2022/09/24 01:30:07;;;;;;;8.98;2.92;;;;;;;;;;5047819;28;20136;-80
2022/09/24 01:32:34;;;;;;;7.03;2.90;;;;;;;;;;5044063;28;20059;-80
2022/09/24 01:35:02;;;;;;;7.95;2.65;;;;;;;;;;5048369;28;20053;-82
2022/09/24 01:37:30;;;;;;;7.65;2.90;;;;;;;;;;5045318;28;20477;-80
2022/09/24 01:39:57;;;;;;;9.05;3.00;;;;;;;;;;5046293;28;20041;-80
2022/09/24 01:42:25;;;;;;;7.05;3.35;;;;;;;;;;5041782;28;20048;-80
2022/09/24 01:44:51;;;;;;;12.18;2.92;;;;;;;;;;5048745;28;20399;-80
2022/09/24 01:47:29;;;;;;;10.65;3.22;;;;;;;;;;5047671;28;20041;-80
2022/09/24 01:49:55;;;;;;;8.85;3.03;;;;;;;;;;5046417;28;20079;-80
2022/09/24 01:52:25;;;;;;;12.02;3.28;;;;;;;;;;5044513;28;20467;-81
2022/09/24 01:54:52;;;;;;;8.80;2.90;;;;;;;;;;5042529;28;20051;-80
2022/09/24 01:57:20;;;;;;;7.53;3.15;;;;;;;;;;5043064;28;20037;-80
2022/09/24 01:59:49;;;;;;;12.10;3.47;;;;;;;;;;5048172;28;20578;-81
2022/09/24 02:02:21;;;;;;;9.23;2.80;;;;;;;;;;5043760;28;20456;-81
2022/09/24 02:04:51;;;;;;;11.40;3.38;;;;;;;;;;5045489;28;20103;-80
2022/09/24 02:07:20;;;;;;;11.52;3.35;;;;;;;;;;5043157;28;20084;-81
2022/09/24 02:09:47;;;;;;;7.88;3.03;;;;;;;;;;5047246;28;20045;-81
2022/09/24 02:12:19;;;;;;;7.90;2.80;;;;;;;;;;5039908;28;20459;-80
2022/09/24 02:14:53;;;;;;;8.35;2.90;;;;;;;;;;5045474;28;20485;-80
2022/09/24 02:17:22;;;;;;;7.38;2.80;;;;;;;;;;5046251;28;20049;-80
2022/09/24 02:19:49;;;;;;;7.35;2.92;;;;;;;;;;5042131;28;20053;-81
2022/09/24 02:22:16;;;;;;;9.60;2.78;;;;;;;;;;5045141;28;20118;-81
2022/09/24 02:24:50;;;;;;;8.02;2.60;;;;;;;;;;5044104;28;20075;-81
2022/09/24 02:27:20;;;;;;;13.95;3.25;;;;;;;;;;5043424;28;20045;-81
2022/09/24 02:29:46;;;;;;;8.25;3.20;;;;;;;;;;5042933;28;20048;-81
2022/09/24 02:32:17;;;;;;;12.70;3.13;;;;;;;;;;5042068;28;20382;-81
2022/09/24 02:34:48;;;;;;;10.00;2.90;;;;;;;;;;5048822;28;20045;-81
2022/09/24 02:37:15;;;;;;;7.20;2.70;;;;;;;;;;5044642;28;20489;-81
2022/09/24 02:39:41;;;;;;;10.30;3.30;;;;;;;;;;5044188;28;20056;-81
2022/09/24 02:42:09;;;;;;;7.45;2.92;;;;;;;;;;5047563;28;20068;-82
2022/09/24 02:44:35;;;;;;;12.23;3.13;;;;;;;;;;5048426;28;20183;-80
2022/09/24 02:47:01;;;;;;;9.73;3.22;;;;;;;;;;5041488;28;20037;-81
2022/09/24 02:49:28;;;;;;;10.60;2.72;;;;;;;;;;5043528;28;20042;-81
2022/09/24 02:51:54;;;;;;;6.32;2.38;;;;;;;;;;5047652;28;20037;-81
2022/09/24 02:54:21;;;;;;;10.18;2.67;;;;;;;;;;5042129;28;20405;-81
2022/09/24 02:56:47;;;;;;;9.52;2.53;;;;;;;;;;5047674;28;20037;-81
2022/09/24 02:59:13;;;;;;;8.90;2.85;;;;;;;;;;5043942;28;20041;-81
2022/09/24 03:01:40;;;;;;;7.32;2.28;;;;;;;;;;5043078;28;20033;-81
2022/09/24 03:04:05;;;;;;;12.02;3.47;;;;;;;;;;5043670;28;20067;-81
2022/09/24 03:06:32;;;;;;;8.57;2.60;;;;;;;;;;5047043;28;20049;-82
2022/09/24 03:08:58;;;;;;;7.68;2.67;;;;;;;;;;5045132;28;20045;-82
2022/09/24 03:11:24;;;;;;;10.23;2.50;;;;;;;;;;5043369;28;20049;-81
2022/09/24 03:13:50;;;;;;;10.50;2.65;;;;;;;;;;5046575;28;20052;-81
2022/09/24 03:16:17;;;;;;;10.05;2.50;;;;;;;;;;5043488;28;20069;-81
2022/09/24 03:18:43;;;;;;;11.52;2.85;;;;;;;;;;5042139;28;20052;-81
2022/09/24 03:21:11;;;;;;;8.88;2.40;;;;;;;;;;5045965;28;20222;-82
2022/09/24 03:23:37;;;;;;;9.68;2.85;;;;;;;;;;5044486;28;20060;-81
2022/09/24 03:26:04;;;;;;;11.48;2.38;;;;;;;;;;5041598;28;20048;-81
2022/09/24 03:28:30;;;;;;;10.57;2.75;;;;;;;;;;5043795;28;20041;-81
2022/09/24 03:30:59;;;;;;;8.93;2.30;;;;;;;;;;5043716;28;20557;-81
2022/09/24 03:33:45;;;;;;;8.18;2.47;;;;;;;;;;5044850;28;20049;-81
2022/09/24 03:36:22;;;;;;;9.00;2.60;;;;;;;;;;5044343;28;20041;-82
2022/09/24 03:38:55;;;;;;;7.97;2.38;;;;;;;;;;5044808;28;20394;-82
2022/09/24 03:41:21;;;;;;;9.00;2.63;;;;;;;;;;5038018;28;20042;-81
2022/09/24 03:43:47;;;;;;;9.68;2.65;;;;;;;;;;5043195;28;20175;-82
2022/09/24 03:46:14;;;;;;;8.95;2.40;;;;;;;;;;5044324;28;20119;-81
2022/09/24 03:48:41;;;;;;;9.75;3.05;;;;;;;;;;5038828;28;20477;-82
2022/09/24 03:51:11;;;;;;;8.18;2.42;;;;;;;;;;5042580;28;20044;-81
2022/09/24 03:53:37;;;;;;;9.52;2.40;;;;;;;;;;5044488;28;20479;-82
2022/09/24 03:56:04;;;;;;;8.35;2.20;;;;;;;;;;5045456;28;20388;-82
2022/09/24 03:58:31;;;;;;;9.80;2.45;;;;;;;;;;5041199;28;20134;-83
2022/09/24 04:00:57;;;;;;;5.88;2.42;;;;;;;;;;5044492;28;20510;-82
2022/09/24 04:03:24;;;;;;;7.50;2.70;;;;;;;;;;5044025;28;20048;-82
2022/09/24 04:05:50;;;;;;;9.45;2.25;;;;;;;;;;5043216;28;20049;-82
2022/09/24 04:08:18;;;;;;;9.45;2.63;;;;;;;;;;5040701;28;20069;-81
2022/09/24 04:10:47;;;;;;;5.80;2.25;;;;;;;;;;5042449;28;20087;-81
2022/09/24 04:13:14;;;;;;;8.73;2.35;;;;;;;;;;5043669;28;20516;-82
2022/09/24 04:15:40;;;;;;;9.00;2.78;;;;;;;;;;5040046;28;20548;-81
2022/09/24 04:18:06;;;;;;;9.38;2.60;;;;;;;;;;5040546;28;20040;-82
2022/09/24 04:20:33;;;;;;;7.38;2.33;;;;;;;;;;5044438;28;20041;-82
2022/09/24 04:22:59;;;;;;;9.57;2.47;;;;;;;;;;5045110;28;20059;-82
2022/09/24 04:25:26;;;;;;;7.88;2.30;;;;;;;;;;5041690;28;20059;-81
2022/09/24 04:27:56;;;;;;;9.48;2.25;;;;;;;;;;5044120;28;20065;-82
2022/09/24 04:30:23;;;;;;;8.68;2.30;;;;;;;;;;5041153;28;20044;-82
2022/09/24 04:32:52;;;;;;;6.15;2.17;;;;;;;;;;5039145;28;20037;-82
2022/09/24 04:35:19;;;;;;;6.00;2.75;;;;;;;;;;5042704;28;20060;-82
2022/09/24 04:37:45;;;;;;;8.57;2.30;;;;;;;;;;5041731;28;20049;-81
2022/09/24 04:40:11;;;;;;;9.73;2.90;;;;;;;;;;5044034;28;20056;-81
2022/09/24 04:42:40;;;;;;;9.05;2.78;;;;;;;;;;5491573;22;20024;-81
2022/09/24 04:45:07;;;;;;;7.85;2.33;;;;;;;;;;5020513;28;20049;-82
2022/09/24 04:47:33;;;;;;;5.85;2.20;;;;;;;;;;5019557;28;20405;-81
2022/09/24 04:50:01;;;;;;;6.72;2.30;;;;;;;;;;5024444;28;20046;-82
2022/09/24 04:52:30;;;;;;;9.43;2.47;;;;;;;;;;5021424;28;20469;-81
2022/09/24 04:54:56;;;;;;;8.27;2.50;;;;;;;;;;5022476;28;20045;-82
2022/09/24 04:57:23;;;;;;;10.88;2.53;;;;;;;;;;5022397;28;21333;-82
2022/09/24 04:59:49;;;;;;;10.55;2.67;;;;;;;;;;5019276;28;20069;-81
2022/09/24 05:02:15;;;;;;;5.53;2.17;;;;;;;;;;5038018;28;20375;-81
2022/09/24 05:04:42;;;;;;;9.35;2.10;;;;;;;;;;5024430;28;20049;-81
2022/09/24 05:07:09;;;;;;;6.30;2.10;;;;;;;;;;5016732;28;20592;-82
2022/09/24 05:09:35;;;;;;;6.47;2.08;;;;;;;;;;5025672;28;20088;-80
2022/09/24 05:12:01;;;;;;;6.90;2.38;;;;;;;;;;5025334;28;20040;-83
2022/09/24 05:14:27;;;;;;;6.88;1.83;;;;;;;;;;5039146;28;20488;-83
2022/09/24 05:16:53;;;;;;;7.90;2.05;;;;;;;;;;5020108;28;20037;-83
2022/09/24 05:19:20;;;;;;;6.03;2.28;;;;;;;;;;5022044;28;20156;-82
2022/09/24 05:21:45;;;;;;;8.23;2.15;;;;;;;;;;5018112;28;20045;-82
2022/09/24 05:24:12;;;;;;;9.77;2.40;;;;;;;;;;5023612;28;20405;-83
2022/09/24 05:29:23;;;;;;;8.68;2.13;;;;;;;;;;5020775;28;20053;-82
2022/09/24 05:31:49;;;;;;;8.93;2.10;;;;;;;;;;5029683;28;20092;-82
2022/09/24 05:34:15;;;;;;;5.15;1.77;;;;;;;;;;5025697;28;20044;-83
2022/09/24 05:36:42;;;;;;;8.07;2.20;;;;;;;;;;5023245;28;20049;-83
2022/09/24 05:39:08;;;;;;;11.10;2.47;;;;;;;;;;5026032;28;20037;-84
2022/09/24 05:41:35;;;;;;;8.23;2.30;;;;;;;;;;5020415;28;20055;-84
2022/09/24 05:44:01;;;;;;;5.65;2.10;;;;;;;;;;5025367;28;20058;-82
2022/09/24 05:46:28;;;;;;;7.53;2.08;;;;;;;;;;5029858;28;20076;-81
2022/09/24 05:48:54;;;;;;;9.18;3.90;;;;;;;;;;5026398;28;20038;-82
2022/09/24 05:51:20;;;;;;;6.13;2.55;;;;;;;;;;5025031;28;20061;-81
2022/09/24 05:53:46;;;;;;;9.00;2.20;;;;;;;;;;5023449;28;20045;-80
2022/09/24 05:56:12;;;;;;;8.98;2.42;;;;;;;;;;5026924;28;20052;-81
2022/09/24 05:58:38;;;;;;;9.27;1.90;;;;;;;;;;5027252;28;20049;-80
2022/09/24 06:01:04;;;;;;;9.27;2.50;;;;;;;;;;5023665;28;20049;-80
2022/09/24 06:03:30;;;;;;;7.10;2.35;;;;;;;;;;5025719;28;20580;-81
2022/09/24 06:06:03;;;;;;;9.15;2.65;;;;;;;;;;5025361;28;20044;-81
2022/09/24 06:08:32;;;;;;;7.82;2.70;;;;;;;;;;5025219;28;20065;-81
2022/09/24 06:11:07;;;;;;;9.65;2.53;;;;;;;;;;5029157;28;20069;-81
2022/09/24 06:13:33;;;;;;;6.10;2.20;;;;;;;;;;5029673;28;20048;-81
2022/09/24 06:16:03;;;;;;;5.30;2.22;;;;;;;;;;5026557;28;20132;-81
2022/09/24 06:18:30;;;;;;;4.97;2.22;;;;;;;;;;5026312;28;20045;-82
2022/09/24 06:21:00;;;;;;;6.88;2.33;;;;;;;;;;5026217;28;20049;-81
2022/09/24 06:23:26;;;;;;;6.75;2.65;;;;;;;;;;5026740;28;20057;-81
2022/09/24 06:25:52;;;;;;;10.27;2.70;;;;;;;;;;5028681;28;20440;-81
2022/09/24 06:28:18;;;;;;;5.43;2.10;;;;;;;;;;5023470;28;20095;-81
2022/09/24 06:30:44;;;;;;;9.65;2.58;;;;;;;;;;5024981;28;20041;-81
2022/09/24 06:33:11;;;;;;;9.23;2.50;;;;;;;;;;5027064;28;20047;-80
2022/09/24 06:35:42;;;;;;;7.20;1.98;;;;;;;;;;5025243;28;22031;-81
2022/09/24 06:38:10;;;;;;;8.65;2.22;;;;;;;;;;5024342;28;20115;-81
2022/09/24 06:40:36;;;;;;;7.45;2.28;;;;;;;;;;5024189;28;20052;-81
2022/09/24 06:43:02;;;;;;;7.88;2.22;;;;;;;;;;5028830;28;20049;-81
2022/09/24 06:45:28;;;;;;;6.70;2.25;;;;;;;;;;5026712;28;20053;-80
2022/09/24 06:47:55;;;;;;;5.20;2.00;;;;;;;;;;5024362;28;20065;-81
2022/09/24 06:50:22;;;;;;;8.02;2.50;;;;;;;;;;5043758;28;20053;-81
2022/09/24 06:52:48;;;;;;;7.43;2.10;;;;;;;;;;5029624;28;20080;-81
2022/09/24 06:55:14;;;;;;;7.18;2.63;;;;;;;;;;5024534;28;20038;-82
2022/09/24 06:57:41;;;;;;;5.22;2.00;;;;;;;;;;5028324;28;20048;-80
2022/09/24 07:00:07;;;;;;;7.15;2.22;;;;;;;;;;5025535;28;20489;-83
2022/09/24 07:02:33;;;;;;;7.30;2.28;;;;;;;;;;5028058;28;20045;-84
2022/09/24 07:04:59;;;;;;;6.72;2.17;;;;;;;;;;5024797;28;20045;-83
2022/09/24 07:07:28;;;;;;;5.35;2.25;;;;;;;;;;5027866;28;20107;-84
2022/09/24 07:09:57;;;;;;;7.93;2.17;;;;;;;;;;5028455;28;20042;-83
2022/09/24 07:12:23;;;;;;;5.95;2.30;;;;;;;;;;5023134;28;20050;-83
2022/09/24 07:14:49;;;;;;;10.45;2.42;;;;;;;;;;5027526;28;20128;-84
2022/09/24 07:17:15;;;;;;;7.07;2.28;;;;;;;;;;5023437;28;20053;-83
2022/09/24 07:19:42;;;;;;;5.57;2.05;;;;;;;;;;5026614;28;20051;-81
2022/09/24 07:22:08;;;;;;;8.95;2.00;;;;;;;;;;5020293;28;20049;-81
2022/09/24 07:24:34;;;;;;;6.88;2.30;;;;;;;;;;5023176;28;20041;-82
2022/09/24 07:27:00;;;;;;;7.20;2.05;;;;;;;;;;5025325;28;20140;-82
2022/09/24 07:29:26;;;;;;;5.25;1.70;;;;;;;;;;5029070;28;20493;-82
2022/09/24 07:31:52;;;;;;;5.05;1.85;;;;;;;;;;5026725;28;20151;-82
2022/09/24 07:34:18;;;;;;;7.85;2.15;;;;;;;;;;5027615;28;20271;-81
2022/09/24 07:36:44;;;;;;;6.72;2.40;;;;;;;;;;5023137;28;20421;-82
2022/09/24 07:39:10;;;;;;;6.45;2.05;;;;;;;;;;5029942;28;20064;-81
2022/09/24 07:41:37;;;;;;;6.47;1.85;;;;;;;;;;5029373;28;20053;-81
2022/09/24 07:44:03;;;;;;;8.57;2.65;;;;;;;;;;5030627;28;20175;-80
2022/09/24 07:46:30;;;;;;;6.03;1.75;;;;;;;;;;5032367;28;20045;-81
2022/09/24 07:48:56;;;;;;;4.63;2.33;;;;;;;;;;5028824;28;20045;-81
2022/09/24 07:51:24;;;;;;;8.38;2.13;;;;;;;;;;5030606;28;20501;-80
2022/09/24 07:53:50;;;;;;;5.78;2.25;;;;;;;;;;5030149;28;20444;-82
2022/09/24 07:56:17;;;;;;;5.75;2.40;;;;;;;;;;5030570;28;20060;-81
2022/09/24 07:58:43;;;;;;;7.10;2.00;;;;;;;;;;5029217;28;20053;-81
2022/09/24 08:01:09;;;;;;;6.57;2.10;;;;;;;;;;5029197;28;20056;-81
2022/09/24 08:03:36;;;;;;;6.43;2.05;;;;;;;;;;5021831;28;20053;-80
2022/09/24 08:06:04;;;;;;;8.63;2.45;;;;;;;;;;5029758;28;20043;-80
2022/09/24 08:08:30;;;;;;;5.20;2.17;;;;;;;;;;5026999;28;20362;-79
2022/09/24 08:10:56;;;;;;;10.38;2.20;;;;;;;;;;5018367;28;20416;-82
2022/09/24 08:13:22;;;;;;;7.43;2.35;;;;;;;;;;5023334;28;20053;-82
2022/09/24 08:15:55;;;;;;;7.75;2.55;;;;;;;;;;5024290;28;20054;-80
2022/09/24 08:18:21;;;;;;;5.82;2.60;;;;;;;;;;5030953;28;20050;-81
2022/09/24 08:20:47;;;;;;;5.85;2.10;;;;;;;;;;5029643;28;20044;-81
2022/09/24 08:23:13;;;;;;;9.27;2.33;;;;;;;;;;5025530;28;20072;-81
2022/09/24 08:25:39;;;;;;;10.57;2.10;;;;;;;;;;5027121;28;20042;-80
2022/09/24 08:28:06;;;;;;;10.27;2.40;;;;;;;;;;5023102;28;20107;-80
2022/09/24 08:30:33;;;;;;;5.53;2.20;;;;;;;;;;5024033;28;20397;-80
2022/09/24 08:32:59;;;;;;;7.50;2.13;;;;;;;;;;5028568;28;20493;-79
2022/09/24 08:35:28;;;;;;;5.85;1.95;;;;;;;;;;5027686;28;20180;-81
2022/09/24 08:37:54;;;;;;;9.93;2.65;;;;;;;;;;5024955;28;20099;-79
2022/09/24 08:40:23;;;;;;;12.57;3.08;;;;;;;;;;5025754;28;20060;-83
2022/09/24 08:42:53;;;;;;;10.02;2.50;;;;;;;;;;5022310;28;20419;-79
2022/09/24 08:48:13;;;;;;;7.82;2.55;;;;;;;;;;5015586;28;20124;-88
2022/09/24 08:50:45;;;;;;;7.20;2.20;;;;;;;;;;5022468;28;20068;-78
2022/09/24 08:53:14;;;;;;;8.02;2.33;;;;;;;;;;5023565;28;20099;-78
2022/09/24 08:55:47;;;;;;;6.40;3.10;;;;;;;;;;5026988;28;20507;-79
2022/09/24 08:58:16;;;;;;;7.97;2.00;;;;;;;;;;5027479;28;20121;-78
2022/09/24 09:01:09;;;;;;;6.25;2.03;;;;;;;;;;5022080;28;20041;-77
2022/09/24 09:03:54;;;;;;;6.25;2.03;;;;;;;;;;4997479;28;20531;-79
2022/09/24 09:06:36;;;;;;;3.88;1.65;;;;;;;;;;5026520;28;20087;-78
2022/09/24 09:09:04;;;;;;;6.47;1.90;;;;;;;;;;5026602;28;20049;-78
2022/09/24 09:11:32;;;;;;;6.80;1.98;;;;;;;;;;5043422;28;20131;-81
2022/09/24 09:14:00;;;;;;;5.15;1.90;;;;;;;;;;5025808;28;20049;-78
2022/09/24 09:16:33;;;;;;;6.25;1.92;;;;;;;;;;5028780;28;20049;-82
2022/09/24 09:19:08;;;;;;;6.65;2.25;;;;;;;;;;5032444;28;20053;-80
2022/09/24 09:21:46;;;;;;;7.18;2.25;;;;;;;;;;5032238;28;20124;-82
2022/09/24 09:24:16;;;;;;;7.93;2.08;;;;;;;;;;5018206;28;20049;-79
2022/09/24 09:26:47;;;;;;;7.22;1.98;;;;;;;;;;5031189;28;20538;-79
2022/09/24 09:29:13;;;;;;;11.18;2.60;;;;;;;;;;5027891;28;20042;-80
2022/09/24 09:32:09;;;;;;;3.35;1.75;;;;;;;;;;5031323;28;20175;-80
2022/09/24 09:35:01;;;;;;;6.70;1.98;;;;;;;;;;5019213;28;20057;-79
2022/09/24 09:37:27;;;;;;;6.03;2.25;;;;;;;;;;5000963;28;20378;-79
2022/09/24 09:39:53;;;;;;;6.80;2.15;;;;;;;;;;5027692;28;20560;-80
2022/09/24 09:42:34;;;;;;;7.65;2.35;;;;;;;;;;5029096;28;20080;-80
2022/09/24 09:45:15;;;;;;;10.07;2.15;;;;;;;;;;5027754;28;20426;-80
2022/09/24 09:47:45;;;;;;;5.47;1.75;;;;;;;;;;5025442;28;20462;-79
2022/09/24 09:50:35;;;;;;;7.18;2.15;;;;;;;;;;5027019;28;20036;-79
2022/09/24 09:53:03;;;;;;;9.23;1.90;;;;;;;;;;5031363;28;20049;-79
2022/09/24 09:55:31;;;;;;;5.57;2.00;;;;;;;;;;5023343;28;20068;-80
2022/09/24 09:58:09;;;;;;;5.93;2.00;;;;;;;;;;5031196;28;20507;-80
2022/09/24 10:00:35;;;;;;;5.40;1.83;;;;;;;;;;5026228;28;20048;-80
2022/09/24 10:03:03;;;;;;;8.93;2.42;;;;;;;;;;5031096;28;20382;-80
2022/09/24 10:05:29;;;;;;;5.07;2.20;;;;;;;;;;5025513;28;20172;-80
2022/09/24 10:07:59;;;;;;;6.43;1.90;;;;;;;;;;5029339;28;20049;-80
2022/09/24 10:10:28;;;;;;;4.72;2.05;;;;;;;;;;5029285;28;20390;-79
2022/09/24 10:13:07;;;;;;;5.10;1.70;;;;;;;;;;5025418;28;20494;-77
2022/09/24 10:15:48;;;;;;;3.47;1.63;;;;;;;;;;5028975;28;20465;-79
2022/09/24 10:18:14;;;;;;;5.45;1.63;;;;;;;;;;5029833;28;20047;-79
2022/09/24 10:20:47;;;;;;;5.70;1.77;;;;;;;;;;5025719;28;20069;-80
2022/09/24 10:23:18;;;;;;;5.15;1.95;;;;;;;;;;5029644;28;20077;-80
2022/09/24 10:25:49;;;;;;;6.28;2.05;;;;;;;;;;5030008;28;20048;-79
2022/09/24 10:31:10;;;;;;;6.35;2.00;;;;;;;;;;5024164;28;20085;-78
2022/09/24 10:33:40;;;;;;;8.80;1.95;;;;;;;;;;5026292;28;20394;-79
2022/09/24 10:36:07;;;;;;;6.18;1.80;;;;;;;;;;5042866;28;20075;-81
2022/09/24 10:38:34;;;;;;;6.82;2.00;;;;;;;;;;5025473;28;20440;-80
2022/09/24 10:41:00;;;;;;;6.45;1.77;;;;;;;;;;5032535;28;20080;-80
2022/09/24 10:43:26;;;;;;;4.47;1.80;;;;;;;;;;5022148;28;20079;-81
2022/09/24 10:45:52;;;;;;;7.00;2.20;;;;;;;;;;5029793;28;20388;-80
2022/09/24 10:48:18;;;;;;;7.05;1.90;;;;;;;;;;5023435;28;20532;-81
2022/09/24 10:50:54;;;;;;;4.85;1.80;;;;;;;;;;5028965;28;20045;-80
2022/09/24 10:53:37;;;;;;;6.18;1.85;;;;;;;;;;5031921;28;20099;-83
2022/09/24 10:56:12;;;;;;;6.45;2.10;;;;;;;;;;5026768;28;20389;-79
2022/09/24 10:58:44;;;;;;;6.88;1.73;;;;;;;;;;5025198;28;20053;-79
2022/09/24 11:01:18;;;;;;;6.85;2.13;;;;;;;;;;5025061;28;20485;-79
2022/09/24 11:03:47;;;;;;;4.65;1.90;;;;;;;;;;5020341;28;20050;-80
2022/09/24 11:06:32;;;;;;;3.80;1.60;;;;;;;;;;5026776;28;20046;-79
2022/09/24 11:09:11;;;;;;;7.07;1.95;;;;;;;;;;5025464;28;20041;-80
2022/09/24 11:11:48;;;;;;;5.50;1.65;;;;;;;;;;5028779;28;20045;-79
2022/09/24 11:14:17;;;;;;;4.68;1.85;;;;;;;;;;5024903;28;20060;-78
2022/09/24 11:16:51;;;;;;;3.75;1.80;;;;;;;;;;5028917;28;20474;-77
2022/09/24 11:19:17;;;;;;;5.18;2.13;;;;;;;;;;5025008;28;20053;-78
2022/09/24 11:21:56;;;;;;;6.07;1.85;;;;;;;;;;5022542;28;20040;-79
2022/09/24 11:24:25;;;;;;;7.15;2.17;;;;;;;;;;5018620;28;20054;-80
2022/09/24 11:27:06;;;;;;;7.15;2.30;;;;;;;;;;5027827;28;20044;-78
2022/09/24 11:29:32;;;;;;;5.00;2.22;;;;;;;;;;5030034;28;20485;-80
2022/09/24 11:32:06;;;;;;;5.07;1.60;;;;;;;;;;5023546;28;20037;-77
2022/09/24 11:34:50;;;;;;;5.43;2.00;;;;;;;;;;5024642;28;20045;-76
2022/09/24 11:37:36;;;;;;;5.75;2.08;;;;;;;;;;5028574;28;20045;-77
2022/09/24 11:40:11;;;;;;;5.07;1.92;;;;;;;;;;5028178;28;20405;-78
2022/09/24 11:42:53;;;;;;;6.28;2.10;;;;;;;;;;5030256;28;20043;-80
2022/09/24 11:45:33;;;;;;;3.40;1.75;;;;;;;;;;5030490;28;20103;-80
2022/09/24 11:48:17;;;;;;;6.10;1.98;;;;;;;;;;5014586;28;20922;-79
2022/09/24 11:51:02;;;;;;;5.65;1.83;;;;;;;;;;5030408;28;20073;-80
2022/09/24 11:53:31;;;;;;;6.03;1.83;;;;;;;;;;5025140;28;20045;-80
2022/09/24 11:56:06;;;;;;;5.47;1.70;;;;;;;;;;5027959;28;20045;-80
2022/09/24 11:58:44;;;;;;;4.53;1.50;;;;;;;;;;5019038;28;20048;-81
2022/09/24 12:01:15;;;;;;;5.15;1.70;;;;;;;;;;5026511;28;20037;-81
2022/09/24 12:04:10;;;;;;;4.45;1.90;;;;;;;;;;5021943;28;20485;-81
2022/09/24 12:06:36;;;;;;;5.13;2.25;;;;;;;;;;5014914;28;20452;-82
2022/09/24 12:09:21;;;;;;;5.13;1.85;;;;;;;;;;5023385;28;20052;-82
2022/09/24 12:11:51;;;;;;;4.82;1.73;;;;;;;;;;5026908;28;20104;-82
2022/09/24 12:14:20;;;;;;;4.82;1.90;;;;;;;;;;5017811;28;20037;-81
2022/09/24 12:16:49;;;;;;;3.90;1.85;;;;;;;;;;5026039;28;20045;-84
2022/09/24 12:19:27;;;;;;;5.68;1.80;;;;;;;;;;5015705;28;20086;-80
2022/09/24 12:21:57;;;;;;;4.65;1.50;;;;;;;;;;5029891;28;20516;-82
2022/09/24 12:24:23;;;;;;;6.25;1.75;;;;;;;;;;5017569;28;20037;-78
2022/09/24 12:26:49;;;;;;;5.78;1.70;;;;;;;;;;5022013;28;20045;-85
2022/09/24 12:34:55;;;;;;;4.00;1.33;;;;;;;;;;5030922;28;20100;-87
2022/09/24 12:37:25;;;;;;;3.95;1.63;;;;;;;;;;5015977;28;20128;-88
2022/09/24 12:40:03;;;;;;;3.33;1.50;;;;;;;;;;5026015;28;20132;-79
2022/09/24 12:42:33;;;;;;;6.43;1.65;;;;;;;;;;5032575;28;20325;-83
2022/09/24 12:45:00;;;;;;;3.92;1.48;;;;;;;;;;5025066;28;20065;-77
2022/09/24 12:47:27;;;;;;;2.80;1.38;;;;;;;;;;5032504;28;20051;-77
2022/09/24 12:49:55;;;;;;;4.10;1.50;;;;;;;;;;5025273;28;20045;-77
2022/09/24 12:52:24;;;;;;;4.10;1.75;;;;;;;;;;5033753;28;20042;-76
2022/09/24 12:55:01;;;;;;;6.40;1.40;;;;;;;;;;5033115;28;20517;-76
2022/09/24 12:57:40;;;;;;;6.28;1.60;;;;;;;;;;5024866;28;20041;-74
2022/09/24 13:00:25;;;;;;;6.93;1.60;;;;;;;;;;5015956;28;20046;-74
2022/09/24 13:02:51;;;;;;;5.82;1.77;;;;;;;;;;5016678;28;20446;-76
2022/09/24 13:05:28;;;;;;;7.43;1.83;;;;;;;;;;5013810;28;20512;-77
2022/09/24 13:08:00;;;;;;;7.68;2.03;;;;;;;;;;5016527;28;20049;-78
2022/09/24 13:10:26;;;;;;;5.22;2.00;;;;;;;;;;5028783;28;20077;-77
2022/09/24 13:12:53;;;;;;;6.72;1.70;;;;;;;;;;5027517;28;20056;-78
2022/09/24 13:15:39;;;;;;;5.28;1.70;;;;;;;;;;5032262;28;20049;-77
2022/09/24 13:18:11;;;;;;;4.85;1.70;;;;;;;;;;5031878;28;20049;-78
2022/09/24 13:20:41;;;;;;;2.42;1.77;;;;;;;;;;5024301;28;20045;-77
2022/09/24 13:23:12;;;;;;;5.97;1.88;;;;;;;;;;5032234;28;20057;-77
2022/09/24 13:25:38;;;;;;;6.03;1.70;;;;;;;;;;5032077;28;20126;-77
2022/09/24 13:28:21;;;;;;;2.55;1.98;;;;;;;;;;5028300;28;20045;-76
2022/09/24 13:30:57;;;;;;;4.93;1.73;;;;;;;;;;5033360;28;20413;-77
2022/09/24 13:33:23;;;;;;;2.95;1.40;;;;;;;;;;5028673;28;20056;-76
2022/09/24 13:36:01;;;;;;;2.45;1.73;;;;;;;;;;5014398;28;20040;-77
2022/09/24 13:38:30;;;;;;;3.20;1.73;;;;;;;;;;5028976;28;20053;-78
2022/09/24 13:41:26;;;;;;;4.05;1.52;;;;;;;;;;5024864;28;20176;-78
2022/09/24 13:43:56;;;;;;;5.65;1.80;;;;;;;;;;4963321;28;20051;-77
2022/09/24 13:46:22;;;;;;;4.28;1.80;;;;;;;;;;5033559;28;20046;-77
2022/09/24 13:48:52;;;;;;;4.57;1.60;;;;;;;;;;5030326;28;20128;-77
2022/09/24 13:51:21;;;;;;;3.90;1.70;;;;;;;;;;5030707;28;20045;-77
2022/09/24 13:53:49;;;;;;;3.33;1.50;;;;;;;;;;5026830;28;20068;-74
2022/09/24 13:56:17;;;;;;;4.22;1.80;;;;;;;;;;5025049;28;20038;-75
2022/09/24 13:58:43;;;;;;;2.78;1.40;;;;;;;;;;5030051;28;20060;-76
2022/09/24 14:01:39;;;;;;;4.00;1.50;;;;;;;;;;5030450;28;20311;-75
2022/09/24 14:04:14;;;;;;;3.53;1.58;;;;;;;;;;5014199;28;20068;-75
2022/09/24 14:06:41;;;;;;;4.03;1.40;;;;;;;;;;5031367;28;20045;-75
2022/09/24 14:09:22;;;;;;;4.68;1.60;;;;;;;;;;5030339;28;20068;-75
2022/09/24 14:11:53;;;;;;;3.15;1.30;;;;;;;;;;5025578;28;20049;-75
2022/09/24 14:14:22;;;;;;;2.97;1.42;;;;;;;;;;5023654;28;20140;-74
2022/09/24 14:16:48;;;;;;;3.72;1.50;;;;;;;;;;5021454;28;20052;-75
2022/09/24 14:19:15;;;;;;;3.50;1.40;;;;;;;;;;5028399;28;20064;-75
2022/09/24 14:21:53;;;;;;;3.17;1.33;;;;;;;;;;5030587;28;20038;-75
2022/09/24 14:24:30;;;;;;;2.65;1.27;;;;;;;;;;5027987;28;20061;-75
2022/09/24 14:27:08;;;;;;;1.25;1.10;;;;;;;;;;5029002;28;20053;-74
2022/09/24 14:29:38;;;;;;;3.33;1.45;;;;;;;;;;5031018;28;20156;-75
2022/09/24 14:32:05;;;;;;;2.58;1.40;;;;;;;;;;5029415;28;20048;-75
2022/09/24 14:34:39;;;;;;;2.95;1.10;;;;;;;;;;5032667;28;20034;-75
2022/09/24 14:37:26;;;;;;;4.10;1.67;;;;;;;;;;5026078;28;20042;-75
2022/09/24 14:39:57;;;;;;;2.97;1.38;;;;;;;;;;5030854;28;20085;-75
2022/09/24 14:42:26;;;;;;;3.55;1.45;;;;;;;;;;5031571;28;20072;-75
2022/09/24 14:44:52;;;;;;;3.90;1.50;;;;;;;;;;5027702;28;20053;-76
2022/09/24 14:47:26;;;;;;;3.97;1.55;;;;;;;;;;5026403;28;20185;-76
2022/09/24 14:49:53;;;;;;;1.92;1.33;;;;;;;;;;5029276;28;20048;-75
2022/09/24 14:52:26;;;;;;;3.33;1.30;;;;;;;;;;5031650;28;20057;-77
2022/09/24 14:55:12;;;;;;;2.63;1.35;;;;;;;;;;5028309;28;20064;-76
2022/09/24 14:57:38;;;;;;;3.28;1.50;;;;;;;;;;5028138;28;20112;-75
2022/09/24 15:00:34;;;;;;;2.65;1.50;;;;;;;;;;5030521;28;20049;-75
2022/09/24 15:03:11;;;;;;;3.28;1.33;;;;;;;;;;5023941;28;20049;-75
2022/09/24 15:05:37;;;;;;;3.75;1.40;;;;;;;;;;5017054;28;20137;-75
2022/09/24 15:08:18;;;;;;;2.53;1.42;;;;;;;;;;5029923;28;20050;-75
2022/09/24 15:10:54;;;;;;;4.63;1.60;;;;;;;;;;5031441;28;20053;-77
2022/09/24 15:13:25;;;;;;;2.38;1.30;;;;;;;;;;5025109;28;20049;-77